KLXY

Mexia-Limestone Co Airport

Mexia, Texas, USA
METAR KLXY 211955Z AUTO 18019G28KT 10SM BKN024 OVC029 22/16 A2983 RMK AO2 T02160160
Observed Flight Rules
Jan-21 @ 19:55 UTC (34 minutes ago) Marginal Visual Flight Rules
Wind Visibility Clouds
180° at 19 knots
 Gusting to 28 knots
10 miles
  • Broken at 2,400' AGL
  • Overcast at 2,900' AGL
Temperatures Readings
Current 22°C / 72°F
Dewpoint 16°C / 61°F
Humidity 69%
Altimeter 29.83" Hg
Pressure 1010 hPa
Elevation 166
METAR KLXY 211955Z AUTO 18019G28KT 10SM BKN024 OVC029 22/16 A2983 RMK AO2 T02160160
Observed Flight Rules
Jan-21 @ 19:55 UTC
(34 minutes ago)
MVFR
Wind Visibility
180° at 19 knots
 Gusting to 28 knots
10 miles
Clouds
  • Broken at 2,400' AGL
  • Overcast at 2,900' AGL
Temperature Dewpoint
22°C / 72°F 16°C / 61°F
Humidity Altimeter Pressure
69% 29.83" Hg 1010 hPa